ADDS METAR Data INFO
IDs: Format: Raw Decoded Include TAF

Data at: 0021 UTC 11 Dec 2017

KGOV 110015Z AUTO 32010G18KT 10SM OVC021 M06/M10 A2991 RMK AO2 T10601098
KGOV 102355Z AUTO 33010G16KT 10SM -SN SCT019 BKN025 OVC037 M06/M10 A2990 RMK AO2 T10601096 11026 21060
KGOV 102336Z AUTO 33011G18KT 10SM SCT019 BKN026 OVC033 M06/M09 A2989 RMK AO2 T10571095
KGOV 102315Z AUTO 33011G16KT 10SM BKN022 OVC027 M05/M09 A2987 RMK AO2 T10521089
KGOV 102255Z AUTO 34007KT 10SM BKN022 OVC030 M05/M08 A2986 RMK AO2 T10501084
KGOV 102235Z AUTO 33008KT 10SM OVC026 M05/M08 A2985 RMK AO2 T10501082
KGOV 102215Z AUTO 32007KT 10SM -SN SCT008 BKN026 OVC032 M05/M08 A2984 RMK AO2 T10471080
KGOV 102155Z AUTO 34009KT 1/2SM SN BKN006 OVC009 M04/M06 A2983 RMK AO2 T10381063
KGOV 102135Z AUTO 32006KT 1/2SM SN OVC004 M03/M05 A2981 RMK AO2 T10271051
KGOV 102115Z AUTO 29005KT 1/2SM SN OVC004 M04/M05 A2980 RMK AO2 T10371055
KGOV 102055Z AUTO 26007KT 3SM -SN OVC014 M04/M06 A2979 RMK AO2 T10361061
KGOV 102035Z AUTO 26006KT 7SM -SN OVC014 M04/M06 A2979 RMK AO2 T10361063
KGOV 102015Z AUTO 26007KT 5SM -SN OVC014 M03/M06 A2979 RMK AO2 T10351062
KGOV 101955Z AUTO 26006KT 3SM -SN OVC014 M04/M06 A2978 RMK AO2 T10361065
KGOV 101935Z AUTO 25009KT 2SM -SN OVC014 M03/M06 A2978 RMK AO2 T10351063
KGOV 101915Z AUTO 25007KT 2SM -SN OVC014 M04/M06 A2978 RMK AO2 T10391065
KGOV 101855Z AUTO 24006KT 5SM -SN OVC012 M04/M07 A2977 RMK AO2 T10401066
KGOV 101835Z AUTO 22006KT 4SM -SN OVC012 M04/M07 A2977 RMK AO2 T10401067
KGOV 101815Z AUTO 25006KT 10SM -SN OVC012 M04/M07 A2976 RMK AO2 T10401070
KGOV 101755Z AUTO 25006KT 10SM -SN OVC012 M04/M07 A2976 RMK AO2 T10411072 11041 21068
KGOV 101735Z AUTO 23007KT 10SM OVC012 M04/M07 A2976 RMK AO2 T10451074
KGOV 101715Z AUTO 24008KT 10SM -SN OVC012 M05/M07 A2977 RMK AO2 T10471075
KGOV 101655Z AUTO 25008KT 7SM -SN OVC012 M05/M08 A2977 RMK AO2 T10471076
KGOV 101635Z AUTO 25009KT 210V270 4SM -SN SCT012 OVC024 M05/M08 A2978 RMK AO2 T10501078
KGOV 101615Z AUTO 24008KT 2 1/2SM -SN OVC026 M05/M08 A2978 RMK AO2 T10531080
KGOV 101555Z AUTO 23007KT 1 3/4SM -SN BKN017 OVC026 M05/M08 A2979 RMK AO2 T10551081
KGOV 101535Z AUTO 22006KT 2 1/2SM -SN OVC017 M06/M08 A2979 RMK AO2 T10581085
KGOV 101515Z AUTO 24005KT 4SM -SN OVC015 M06/M09 A2979 RMK AO2 T10601087
KGOV 101455Z AUTO 23008KT 10SM -SN OVC013 M06/M09 A2979 RMK AO2 T10611090
KGOV 101435Z AUTO 23006KT 10SM -SN OVC013 M06/M09 A2979 RMK AO2 T10631093
KGOV 101415Z AUTO 23006G14KT 10SM -SN OVC013 M06/M09 A2979 RMK AO2 T10651093
KGOV 101355Z AUTO 23007KT 10SM -SN OVC015 M07/M09 A2979 RMK AO2 T10671095
KGOV 101335Z AUTO 22007KT 10SM OVC018 M07/M10 A2979 RMK AO2 T10681096
KGOV 101315Z AUTO 23007KT 10SM -SN OVC025 M07/M10 A2979 RMK AO2 T10681096
KGOV 101255Z AUTO 23008KT 7SM -SN BKN029 OVC080 M07/M10 A2979 RMK AO2 T10681096
KGOV 101235Z AUTO 23004KT 5SM -SN OVC080 M07/M09 A2979 RMK AO2 T10681095
KGOV 101215Z AUTO 23005KT 5SM -SN OVC080 M07/M09 A2979 RMK AO2 T10681095
KGOV 101155Z AUTO 24007KT 4SM -SN SCT023 SCT045 OVC090 M07/M10 A2979 RMK AO2 T10671098 11066 21075
KGOV 101135Z AUTO 25007KT 10SM -SN SCT019 BKN043 OVC090 M07/M10 A2980 RMK AO2 T10671100
KGOV 101115Z AUTO 23005KT 10SM -SN SCT017 SCT027 OVC090 M07/M10 A2980 RMK AO2 T10661100
KGOV 101055Z AUTO 24007KT 210V270 10SM SCT019 BKN025 OVC100 M07/M10 A2979 RMK AO2 T10671100
KGOV 101035Z AUTO 25007KT 10SM SCT018 OVC025 M07/M10 A2979 RMK AO2 T10671100
KGOV 101015Z AUTO 23005KT 10SM SCT018 OVC025 M07/M10 A2980 RMK AO2 T10671100
KGOV 100955Z AUTO 24004KT 10SM SCT018 OVC025 M07/M10 A2980 RMK AO2 T10681101
KGOV 100935Z AUTO 25006KT 10SM OVC023 M07/M10 A2980 RMK AO2 T10671101
KGOV 100915Z AUTO 25006KT 10SM OVC026 M07/M10 A2980 RMK AO2 T10671101
KGOV 100855Z AUTO 25007KT 10SM OVC024 M07/M10 A2981 RMK AO2 T10661100
KGOV 100835Z AUTO 24005KT 10SM OVC026 M07/M10 A2981 RMK AO2 T10671099
KGOV 100815Z AUTO 24005KT 10SM OVC026 M07/M10 A2982 RMK AO2 T10671097
KGOV 100755Z AUTO 25005KT 10SM OVC028 M07/M09 A2982 RMK AO2 T10681095
KGOV 100735Z AUTO 24005KT 10SM BKN028 BKN034 M07/M10 A2982 RMK AO2 T10681096
KGOV 100715Z AUTO 24007KT 10SM SCT026 BKN035 M07/M10 A2983 RMK AO2 T10711097
KGOV 100655Z AUTO 00000KT 10SM OVC035 M07/M10 A2983 RMK AO2 T10751098
KGOV 100635Z AUTO 22004KT 7SM -SN OVC037 M07/M10 A2984 RMK AO2 T10751098
KGOV 100615Z AUTO 23003KT 3SM -SN SCT028 OVC035 M07/M10 A2984 RMK AO2 T10751096
KGOV 100555Z AUTO 00000KT 7SM -SN OVC035 M07/M10 A2985 RMK AO2 T10751096 11050 21075 410281095
KGOV 100535Z AUTO 22003KT 4SM -SN SCT021 SCT026 OVC037 M07/M10 A2986 RMK AO2 T10751098
KGOV 100515Z AUTO 24003KT 10SM -SN SCT023 BKN029 OVC037 M07/M10 A2987 RMK AO2 T10751100
KGOV 100455Z AUTO 25003KT 5SM -SN SCT025 OVC039 M07/M10 A2987 RMK AO2 T10721100
KGOV 100435Z AUTO 26003KT 5SM -SN SCT025 OVC041 M07/M10 A2987 RMK AO2 T10721102
KGOV 100415Z AUTO 00000KT 5SM -SN BKN037 OVC042 M07/M10 A2987 RMK AO2 T10681105
KGOV 100355Z AUTO 29004KT 7SM -SN BKN035 OVC042 M07/M11 A2987 RMK AO2 T10701107
KGOV 100335Z AUTO 30005KT 10SM -SN OVC035 M07/M11 A2987 RMK AO2 T10701110
KGOV 100315Z AUTO 31007KT 10SM -SN OVC031 M07/M11 A2987 RMK AO2 T10671111
KGOV 100255Z AUTO 31006KT 10SM OVC031 M07/M11 A2987 RMK AO2 T10661109
KGOV 100235Z AUTO 31004KT 10SM -SN OVC029 M06/M11 A2987 RMK AO2 T10631110
KGOV 100215Z AUTO 31005KT 10SM OVC029 M06/M11 A2987 RMK AO2 T10651112
KGOV 100155Z AUTO 33006KT 10SM OVC029 M06/M11 A2987 RMK AO2 T10651111
KGOV 100135Z AUTO 33007KT 10SM OVC029 M06/M11 A2988 RMK AO2 T10621111
KGOV 100115Z AUTO 33008KT 10SM SCT029 OVC041 M06/M10 A2988 RMK AO2 T10631102
KGOV 100055Z AUTO 30009G14KT 10SM OVC041 M06/M10 A2987 RMK AO2 T10621100
KGOV 100035Z AUTO 31009KT 7SM -SN SCT015 SCT022 OVC041 M06/M09 A2987 RMK AO2 T10581090
KGOV 100015Z AUTO 32011KT 7SM -SN BKN019 BKN026 OVC041 M05/M09 A2987 RMK AO2 T10551088
KGOV 092355Z AUTO 31011G14KT 5SM -SN BKN017 OVC025 M05/M08 A2986 RMK AO2 T10481081 11028 21066
KGOV 092335Z AUTO 32006KT 5SM -SN SCT016 BKN047 OVC065 M04/M08 A2986 RMK AO2 T10431076
KGOV 092315Z AUTO 33009G16KT 4SM -SN SCT020 BKN028 OVC065 M04/M08 A2985 RMK AO2 T10451078
KGOV 092255Z AUTO 32010KT 5SM -SN BKN028 M04/M08 A2985 RMK AO2 T10431076
KGOV 092235Z AUTO 31006KT 10SM BKN028 M05/M08 A2984 RMK AO2 T10501085
KGOV 092215Z AUTO 30006KT 10SM SCT026 M06/M10 A2983 RMK AO2 T10631099
KGOV 092155Z AUTO 35005KT 10SM SCT026 M06/M10 A2982 RMK AO2 T10561103
KGOV 092135Z AUTO 01008KT 10SM SCT024 M05/M09 A2981 RMK AO2 T10481093
KGOV 092115Z AUTO 34004KT 10SM CLR M05/M10 A2981 RMK AO2 T10491102
KGOV 092055Z AUTO 34005KT 10SM SCT024 SCT029 M05/M10 A2980 RMK AO2 T10511101
KGOV 092035Z AUTO 35008KT 10SM SCT024 OVC031 M03/M08 A2979 RMK AO2 T10351083
KGOV 092015Z AUTO 02009KT 10SM BKN024 OVC031 M03/M08 A2979 RMK AO2 T10351083
KGOV 091955Z AUTO 01010KT 10SM BKN022 BKN028 M03/M08 A2978 RMK AO2 T10301084
KGOV 091935Z AUTO 33008KT 10SM BKN022 M04/M09 A2977 RMK AO2 T10411091
KGOV 091915Z AUTO 33008KT 10SM OVC022 M03/M08 A2976 RMK AO2 T10291081
KGOV 091855Z AUTO 34003KT 10SM BKN022 M03/M08 A2976 RMK AO2 T10311082
KGOV 091835Z AUTO 35008KT 10SM SCT026 M04/M09 A2976 RMK AO2 T10361086
KGOV 091815Z AUTO 36006KT 10SM SCT015 OVC026 M04/M08 A2976 RMK AO2 T10361076
KGOV 091755Z AUTO 01008KT 10SM BKN015 OVC028 M04/M08 A2975 RMK AO2 T10381077 11037 21095
KGOV 091735Z AUTO 02007KT 10SM OVC013 M04/M07 A2975 RMK AO2 T10391074
KGOV 091715Z AUTO 03005KT 10SM BKN013 OVC020 M04/M07 A2975 RMK AO2 T10381068
KGOV 091655Z AUTO 02005KT 10SM BKN011 OVC020 M04/M07 A2975 RMK AO2 T10421068
KGOV 091635Z AUTO 01004KT 10SM OVC009 M05/M07 A2975 RMK AO2 T10491073
KGOV 091615Z AUTO 04004KT 10SM OVC009 M05/M07 A2975 RMK AO2 T10541075
KGOV 091555Z AUTO 05005KT 10SM BKN009 M08/M10 A2975 RMK AO2 T10851104
KGOV 091535Z AUTO 02003KT 7SM CLR M08/M10 A2975 RMK AO2 T10781099
KGOV 091515Z AUTO 02003KT 5SM BR SCT010 BKN015 M08/M10 A2974 RMK AO2 T10851101
KGOV 091455Z AUTO 03004KT 10SM BKN010 OVC050 M07/M09 A2974 RMK AO2 T10751091
KGOV 091435Z AUTO 01003KT 7SM SCT010 BKN050 OVC080 M08/M09 A2973 RMK AO2 T10811094
KGOV 091415Z AUTO 00000KT 7SM SCT050 BKN080 OVC100 M09/M10 A2972 RMK AO2 T10861101
KGOV 091355Z AUTO 00000KT 7SM SCT060 BKN070 OVC100 M09/M10 A2972 RMK AO2 T10881100
KGOV 091335Z AUTO 00000KT 5SM BR SCT060 SCT070 OVC080 M09/M11 A2971 RMK AO2 T10941107
KGOV 091315Z AUTO 00000KT 5SM BR SCT080 BKN100 M09/M10 A2972 RMK AO2 T10881102
KGOV 091255Z AUTO 00000KT 4SM -SN SCT013 SCT022 BKN042 M08/M09 A2971 RMK AO2 T10791094
KGOV 091235Z AUTO 00000KT 4SM -SN SCT017 BKN030 OVC044 M07/M09 A2971 RMK AO2 T10751091